Time;durP1;ratioP1;P1;durP2;ratioP2;P2;SDS_P1;SDS_P2;PMS_P1;PMS_P2;Temp;Humidity;BMP_temperature;BMP_pressure;BME280_temperature;BME280_humidity;BME280_pressure;Samples;Min_cycle;Max_cycle;Signal;HPM_P1;HPM_P2
2023/04/05 00:00:39;;;;;;;;;;;2.50;99.90;;;;;;5005216;28;19921;-70
2023/04/05 00:03:04;;;;;;;;;;;2.40;99.90;;;;;;5023725;28;19931;-71
2023/04/05 00:05:30;;;;;;;;;;;2.40;99.90;;;;;;5025484;28;20007;-71
2023/04/05 00:08:00;;;;;;;;;;;2.40;99.90;;;;;;5019205;28;19925;-71
2023/04/05 00:10:26;;;;;;;;;;;2.30;99.90;;;;;;5011389;28;19932;-71
2023/04/05 00:12:52;;;;;;;;;;;2.30;99.90;;;;;;5017955;28;19921;-71
2023/04/05 00:15:17;;;;;;;;;;;2.60;99.90;;;;;;5034951;28;19975;-71
2023/04/05 00:17:43;;;;;;;;;;;2.30;99.90;;;;;;5032716;28;19921;-71
2023/04/05 00:20:12;;;;;;;;;;;3.40;99.90;;;;;;5018004;28;19943;-71
2023/04/05 00:22:38;;;;;;;;;;;2.30;99.90;;;;;;5015363;28;19932;-71
2023/04/05 00:25:04;;;;;;;;;;;2.30;99.90;;;;;;5024528;28;20372;-71
2023/04/05 00:27:30;;;;;;;;;;;2.20;99.90;;;;;;5017436;28;19928;-71
2023/04/05 00:29:55;;;;;;;;;;;2.20;99.90;;;;;;5035439;28;19928;-71
2023/04/05 00:32:21;;;;;;;;;;;2.20;99.90;;;;;;5016533;28;19943;-71
2023/04/05 00:34:50;;;;;;;;;;;3.40;99.90;;;;;;5030202;28;19921;-71
2023/04/05 00:37:15;;;;;;;;;;;2.10;99.90;;;;;;4997818;28;19947;-71
2023/04/05 00:39:41;;;;;;;;;;;2.00;99.90;;;;;;5014674;28;20008;-71
2023/04/05 00:42:07;;;;;;;;;;;3.30;99.90;;;;;;4997825;28;20295;-71
2023/04/05 00:44:37;;;;;;;;;;;2.00;99.90;;;;;;5012903;28;20022;-71
2023/04/05 00:47:03;;;;;;;;;;;1.90;99.90;;;;;;5034292;28;19921;-71
2023/04/05 00:49:29;;;;;;;;;;;1.90;99.90;;;;;;5035008;28;19932;-71
2023/04/05 00:51:55;;;;;;;;;;;2.70;99.90;;;;;;5017222;28;19968;-71
2023/04/05 00:54:21;;;;;;;;;;;1.80;99.90;;;;;;5020737;28;19989;-71
2023/04/05 00:56:46;;;;;;;;;;;1.80;99.90;;;;;;5015101;28;19925;-71
2023/04/05 00:59:12;;;;;;;;;;;1.30;99.90;;;;;;5015157;28;19925;-71
2023/04/05 01:01:39;;;;;;;;;;;1.70;99.90;;;;;;4996588;28;20035;-71
2023/04/05 01:04:06;;;;;;;;;;;1.70;99.90;;;;;;5024147;28;19925;-71
2023/04/05 01:06:51;;;;;;;;;;;2.60;99.90;;;;;;5019562;28;19922;-71
2023/04/05 01:09:23;;;;;;;;;;;1.70;99.90;;;;;;5015213;28;19928;-71
2023/04/05 01:11:51;;;;;;;;;;;1.70;99.90;;;;;;5015088;28;19921;-71
2023/04/05 01:14:17;;;;;;;;;;;1.60;99.90;;;;;;5026165;28;19921;-71
2023/04/05 01:16:42;;;;;;;;;;;1.60;99.90;;;;;;5017813;28;19990;-71
2023/04/05 01:19:08;;;;;;;;;;;1.60;99.90;;;;;;5014980;28;19922;-71
2023/04/05 01:21:36;;;;;;;;;;;1.60;99.90;;;;;;4996470;28;19922;-71
2023/04/05 01:24:21;;;;;;;;;;;1.50;99.90;;;;;;5017331;28;19925;-71
2023/04/05 01:27:01;;;;;;;;;;;1.50;99.90;;;;;;5030688;28;19967;-71
2023/04/05 01:29:39;;;;;;;;;;;1.50;99.90;;;;;;5033329;28;19925;-71
2023/04/05 01:32:25;;;;;;;;;;;1.50;99.90;;;;;;5034346;28;19928;-71
2023/04/05 01:34:53;;;;;;;;;;;1.40;99.90;;;;;;5005858;28;20336;-71
2023/04/05 01:37:22;;;;;;;;;;;1.30;99.90;;;;;;4996511;28;19922;-71
2023/04/05 01:39:49;;;;;;;;;;;1.30;99.90;;;;;;5004586;28;20373;-71
2023/04/05 01:42:15;;;;;;;;;;;1.30;99.90;;;;;;5013650;28;20336;-71
2023/04/05 01:44:41;;;;;;;;;;;1.30;99.90;;;;;;4996255;28;19921;-71
2023/04/05 01:47:06;;;;;;;;;;;2.70;99.90;;;;;;5014202;28;19929;-71
2023/04/05 01:49:32;;;;;;;;;;;1.40;99.90;;;;;;5014548;28;20295;-71
2023/04/05 01:51:58;;;;;;;;;;;1.20;99.90;;;;;;5009410;28;19921;-71
2023/04/05 01:54:23;;;;;;;;;;;1.20;99.90;;;;;;5013802;28;20397;-71
2023/04/05 01:56:49;;;;;;;;;;;1.20;99.90;;;;;;4995949;28;19921;-71
2023/04/05 01:59:15;;;;;;;;;;;1.10;99.90;;;;;;5013359;28;19948;-71
2023/04/05 02:01:40;;;;;;;;;;;1.10;99.90;;;;;;5012932;28;20273;-71
2023/04/05 02:04:06;;;;;;;;;;;1.10;99.90;;;;;;5032846;28;20280;-71
2023/04/05 02:06:31;;;;;;;;;;;1.10;99.90;;;;;;5013688;28;20297;-72
2023/04/05 02:08:57;;;;;;;;;;;1.10;99.90;;;;;;5013900;28;19929;-71
2023/04/05 02:11:22;;;;;;;;;;;1.00;99.90;;;;;;5014603;28;19921;-71
2023/04/05 02:13:48;;;;;;;;;;;1.00;99.90;;;;;;4996349;28;19927;-71
2023/04/05 02:16:14;;;;;;;;;;;1.00;99.90;;;;;;5013872;28;20289;-71
2023/04/05 02:18:40;;;;;;;;;;;1.00;99.90;;;;;;5012611;28;19917;-71
2023/04/05 02:21:07;;;;;;;;;;;1.00;99.90;;;;;;5015420;28;20024;-71
2023/04/05 02:23:33;;;;;;;;;;;0.90;99.90;;;;;;4996054;28;20372;-71
2023/04/05 02:25:59;;;;;;;;;;;0.90;99.90;;;;;;4995674;28;19925;-71
2023/04/05 02:28:25;;;;;;;;;;;0.80;99.90;;;;;;5013058;28;19921;-71
2023/04/05 02:30:50;;;;;;;;;;;2.10;99.90;;;;;;5022510;28;19921;-71
2023/04/05 02:33:16;;;;;;;;;;;0.80;99.90;;;;;;5012290;28;19928;-71
2023/04/05 02:35:41;;;;;;;;;;;0.80;99.90;;;;;;5033139;28;19921;-71
2023/04/05 02:38:08;;;;;;;;;;;1.20;99.90;;;;;;5014256;28;20059;-71
2023/04/05 02:40:34;;;;;;;;;;;0.70;99.90;;;;;;5027668;28;19921;-72
2023/04/05 02:42:59;;;;;;;;;;;0.70;99.90;;;;;;5017379;28;19921;-71
2023/04/05 02:45:26;;;;;;;;;;;0.80;99.90;;;;;;5032367;28;19925;-71
2023/04/05 02:47:52;;;;;;;;;;;0.80;99.90;;;;;;5033179;28;19927;-70
2023/04/05 02:50:19;;;;;;;;;;;0.20;99.90;;;;;;5017531;28;19921;-72
2023/04/05 02:52:45;;;;;;;;;;;0.50;99.90;;;;;;5012568;28;19928;-71
2023/04/05 02:55:11;;;;;;;;;;;0.50;99.90;;;;;;4995661;28;19925;-71
2023/04/05 02:57:36;;;;;;;;;;;0.50;99.90;;;;;;5012885;28;20368;-71
2023/04/05 03:00:03;;;;;;;;;;;0.50;99.90;;;;;;5021320;28;19976;-71
2023/04/05 03:02:30;;;;;;;;;;;0.40;99.90;;;;;;5014921;28;19921;-71
2023/04/05 03:04:55;;;;;;;;;;;1.50;99.90;;;;;;5032992;28;19917;-71
2023/04/05 03:07:24;;;;;;;;;;;0.40;99.90;;;;;;5032037;28;20292;-71
2023/04/05 03:09:50;;;;;;;;;;;0.40;99.90;;;;;;5011468;28;19964;-72
2023/04/05 03:12:15;;;;;;;;;;;0.30;99.90;;;;;;5019341;28;19970;-71
2023/04/05 03:14:41;;;;;;;;;;;0.30;99.90;;;;;;5018487;28;19921;-71
2023/04/05 03:17:06;;;;;;;;;;;1.10;99.90;;;;;;5037095;28;20368;-71
2023/04/05 03:19:32;;;;;;;;;;;0.20;99.90;;;;;;5016087;28;19928;-71
2023/04/05 03:21:58;;;;;;;;;;;0.20;99.90;;;;;;5018404;28;19928;-71
2023/04/05 03:24:23;;;;;;;;;;;0.20;99.90;;;;;;5036266;28;19921;-71
2023/04/05 03:26:49;;;;;;;;;;;0.20;99.90;;;;;;5018744;28;19921;-71
2023/04/05 03:29:15;;;;;;;;;;;0.20;99.90;;;;;;5015640;28;19921;-71
2023/04/05 03:31:43;;;;;;;;;;;0.20;99.90;;;;;;5016337;28;19921;-72
2023/04/05 03:34:09;;;;;;;;;;;0.40;99.90;;;;;;5016796;28;19921;-71
2023/04/05 03:36:44;;;;;;;;;;;0.20;99.90;;;;;;5015807;28;19928;-71
2023/04/05 03:39:10;;;;;;;;;;;0.20;99.90;;;;;;5000984;28;19936;-71
2023/04/05 03:41:36;;;;;;;;;;;0.40;99.90;;;;;;5005094;28;19982;-73
2023/04/05 03:44:02;;;;;;;;;;;0.10;99.90;;;;;;5011049;28;19925;-72
2023/04/05 03:46:28;;;;;;;;;;;0.10;99.90;;;;;;4998503;28;20335;-72
2023/04/05 03:48:53;;;;;;;;;;;0.10;99.90;;;;;;5016337;28;19921;-71
2023/04/05 03:51:19;;;;;;;;;;;0.10;99.90;;;;;;5032843;28;19979;-71
2023/04/05 03:53:44;;;;;;;;;;;0.10;99.90;;;;;;5036031;28;20011;-71
2023/04/05 03:56:10;;;;;;;;;;;1.70;99.90;;;;;;5017506;28;19967;-71
2023/04/05 03:58:36;;;;;;;;;;;0.00;99.90;;;;;;5018366;28;20383;-71
2023/04/05 04:01:02;;;;;;;;;;;0.00;99.90;;;;;;5017557;28;20403;-70
2023/04/05 04:03:30;;;;;;;;;;;0.20;99.90;;;;;;5017264;28;20008;-71
2023/04/05 04:05:56;;;;;;;;;;;0.00;99.90;;;;;;5018466;28;20360;-71
2023/04/05 04:08:22;;;;;;;;;;;0.00;99.90;;;;;;5035654;28;19971;-71
2023/04/05 04:10:50;;;;;;;;;;;0.90;99.90;;;;;;5031910;28;19928;-71
2023/04/05 04:13:18;;;;;;;;;;;-0.10;99.90;;;;;;5035862;28;19925;-71
2023/04/05 04:15:44;;;;;;;;;;;-0.10;99.90;;;;;;5035870;28;19925;-71
2023/04/05 04:18:10;;;;;;;;;;;1.40;99.90;;;;;;5034829;28;19917;-71
2023/04/05 04:20:36;;;;;;;;;;;-0.10;99.90;;;;;;5023545;28;19961;-73
2023/04/05 04:23:14;;;;;;;;;;;1.30;99.90;;;;;;5015967;28;19968;-71
2023/04/05 04:25:44;;;;;;;;;;;-0.10;99.90;;;;;;4997535;28;19929;-72
2023/04/05 04:28:11;;;;;;;;;;;1.30;99.90;;;;;;5031907;28;19928;-70
2023/04/05 04:30:37;;;;;;;;;;;1.10;99.90;;;;;;5018368;28;19921;-70
2023/04/05 04:33:03;;;;;;;;;;;-0.20;99.90;;;;;;5037848;28;20287;-70
2023/04/05 04:35:30;;;;;;;;;;;-0.20;99.90;;;;;;5018421;28;20458;-70
2023/04/05 04:38:02;;;;;;;;;;;-0.20;99.90;;;;;;5023379;28;20381;-70
2023/04/05 04:40:31;;;;;;;;;;;0.40;99.90;;;;;;5015614;28;20016;-70
2023/04/05 04:42:58;;;;;;;;;;;-0.30;99.90;;;;;;5015533;28;19925;-70
2023/04/05 04:45:25;;;;;;;;;;;-0.30;99.90;;;;;;5014556;28;20023;-70
2023/04/05 04:47:52;;;;;;;;;;;-0.30;99.90;;;;;;5027195;28;19917;-71
2023/04/05 04:50:19;;;;;;;;;;;-0.40;99.90;;;;;;5007094;28;19928;-71
2023/04/05 04:52:45;;;;;;;;;;;-0.30;99.90;;;;;;5014426;28;19928;-71
2023/04/05 04:55:13;;;;;;;;;;;-0.30;99.90;;;;;;5015183;28;19925;-71
2023/04/05 04:57:41;;;;;;;;;;;0.10;99.90;;;;;;5005043;28;19929;-70
2023/04/05 05:00:11;;;;;;;;;;;-0.30;99.90;;;;;;5016587;28;20504;-72
2023/04/05 05:02:37;;;;;;;;;;;-0.30;99.90;;;;;;5022655;28;19921;-69
2023/04/05 05:05:03;;;;;;;;;;;-0.30;99.90;;;;;;5014831;28;20357;-70
2023/04/05 05:07:28;;;;;;;;;;;-0.30;99.90;;;;;;5016512;28;19928;-70
2023/04/05 05:09:54;;;;;;;;;;;-0.30;99.90;;;;;;4998728;28;19925;-71
2023/04/05 05:12:20;;;;;;;;;;;-0.30;99.90;;;;;;5010068;28;19944;-70
2023/04/05 05:14:46;;;;;;;;;;;-0.30;99.90;;;;;;5034005;28;19925;-73
2023/04/05 05:17:11;;;;;;;;;;;-0.30;99.90;;;;;;5016527;28;19967;-72
2023/04/05 05:19:37;;;;;;;;;;;-0.30;99.90;;;;;;5028124;28;19925;-71
2023/04/05 05:22:03;;;;;;;;;;;-0.30;99.90;;;;;;4996565;28;20369;-71
2023/04/05 05:24:28;;;;;;;;;;;-0.30;99.90;;;;;;5033203;28;20376;-79
2023/04/05 05:26:54;;;;;;;;;;;-0.10;99.90;;;;;;5005166;28;19922;-73
2023/04/05 05:29:19;;;;;;;;;;;0.10;99.90;;;;;;5015595;28;20277;-72
2023/04/05 05:31:45;;;;;;;;;;;-0.20;99.90;;;;;;5018723;28;20266;-75
2023/04/05 05:34:10;;;;;;;;;;;0.40;99.90;;;;;;4999485;28;19927;-74
2023/04/05 05:36:36;;;;;;;;;;;-0.10;99.90;;;;;;5030705;28;20268;-75
2023/04/05 05:39:04;;;;;;;;;;;-0.10;99.90;;;;;;5006139;28;19979;-75
2023/04/05 05:41:30;;;;;;;;;;;0.00;99.90;;;;;;4995636;28;20017;-75
2023/04/05 05:43:55;;;;;;;;;;;0.80;99.90;;;;;;4996276;28;20012;-73
2023/04/05 05:46:24;;;;;;;;;;;0.00;99.90;;;;;;4995175;28;20352;-74
2023/04/05 05:48:50;;;;;;;;;;;1.20;99.90;;;;;;5023933;28;19929;-75
2023/04/05 05:51:16;;;;;;;;;;;0.00;99.90;;;;;;5025411;28;19925;-74
2023/04/05 05:53:43;;;;;;;;;;;0.10;99.90;;;;;;5014127;28;20023;-74
2023/04/05 05:56:09;;;;;;;;;;;0.80;99.90;;;;;;4995891;28;19925;-74
2023/04/05 05:58:36;;;;;;;;;;;0.10;99.90;;;;;;4996149;28;19948;-80
2023/04/05 06:01:02;;;;;;;;;;;0.20;99.90;;;;;;4996348;28;19947;-74
2023/04/05 06:03:29;;;;;;;;;;;0.70;99.90;;;;;;4995273;28;19921;-72
2023/04/05 06:05:55;;;;;;;;;;;0.30;99.90;;;;;;5008462;28;20292;-73
2023/04/05 06:08:22;;;;;;;;;;;0.30;99.90;;;;;;5032411;28;20031;-75
2023/04/05 06:10:48;;;;;;;;;;;0.40;99.90;;;;;;5015339;28;20225;-76
2023/04/05 06:13:16;;;;;;;;;;;0.40;99.90;;;;;;5033619;28;19928;-74
2023/04/05 06:15:42;;;;;;;;;;;0.50;99.90;;;;;;5015194;28;20442;-74
2023/04/05 06:18:14;;;;;;;;;;;0.50;99.90;;;;;;5015149;28;19944;-74
2023/04/05 06:20:41;;;;;;;;;;;0.60;99.90;;;;;;5015523;28;19921;-76
2023/04/05 06:23:07;;;;;;;;;;;0.60;99.90;;;;;;5015206;28;19921;-73
2023/04/05 06:25:33;;;;;;;;;;;0.70;99.90;;;;;;5029556;28;19988;-69
2023/04/05 06:27:58;;;;;;;;;;;0.70;99.90;;;;;;5020239;28;19936;-70
2023/04/05 06:30:24;;;;;;;;;;;0.70;99.90;;;;;;5025933;28;19932;-70
2023/04/05 06:32:53;;;;;;;;;;;0.80;99.90;;;;;;5020204;28;20285;-72
2023/04/05 06:35:22;;;;;;;;;;;0.90;99.90;;;;;;5014589;28;19948;-70
2023/04/05 06:37:48;;;;;;;;;;;1.00;99.90;;;;;;5003342;28;19929;-70
2023/04/05 06:40:14;;;;;;;;;;;1.10;99.90;;;;;;5013610;28;20285;-70
2023/04/05 06:42:39;;;;;;;;;;;1.10;99.90;;;;;;5011662;28;19921;-73
2023/04/05 06:45:06;;;;;;;;;;;1.20;99.90;;;;;;4994811;28;19925;-71
2023/04/05 06:47:35;;;;;;;;;;;1.30;99.90;;;;;;4994767;28;19921;-72
2023/04/05 06:50:01;;;;;;;;;;;1.40;99.90;;;;;;5023043;28;19920;-72
2023/04/05 06:52:27;;;;;;;;;;;1.50;99.90;;;;;;5032115;28;19928;-72
2023/04/05 06:54:53;;;;;;;;;;;1.60;99.90;;;;;;5033245;28;19921;-71
2023/04/05 06:57:19;;;;;;;;;;;1.70;99.90;;;;;;5015255;28;20296;-71
2023/04/05 06:59:44;;;;;;;;;;;1.70;99.90;;;;;;5032130;28;20285;-72
2023/04/05 07:02:10;;;;;;;;;;;1.80;99.90;;;;;;5014809;28;19921;-71
2023/04/05 07:04:36;;;;;;;;;;;1.90;99.90;;;;;;5032673;28;19925;-72
2023/04/05 07:07:02;;;;;;;;;;;2.00;99.90;;;;;;5014692;28;19931;-72
2023/04/05 07:09:31;;;;;;;;;;;2.20;99.90;;;;;;5014842;28;19921;-72
2023/04/05 07:12:01;;;;;;;;;;;2.30;99.90;;;;;;5032799;28;20285;-72
2023/04/05 07:14:30;;;;;;;;;;;2.40;99.90;;;;;;5013946;28;19921;-72
2023/04/05 07:16:58;;;;;;;;;;;2.60;99.90;;;;;;5032617;28;19928;-72
2023/04/05 07:19:25;;;;;;;;;;;2.70;99.90;;;;;;5031954;28;19921;-72
2023/04/05 07:21:51;;;;;;;;;;;2.80;99.90;;;;;;5015135;28;19947;-72
2023/04/05 07:24:19;;;;;;;;;;;3.00;99.90;;;;;;5033256;28;19921;-73
2023/04/05 07:26:44;;;;;;;;;;;3.80;99.90;;;;;;5005974;28;20304;-73
2023/04/05 07:29:10;;;;;;;;;;;4.50;99.90;;;;;;5003387;28;19921;-72
2023/04/05 07:31:37;;;;;;;;;;;6.00;99.90;;;;;;5030689;28;20265;-72
2023/04/05 07:34:02;;;;;;;;;;;8.20;99.90;;;;;;4995737;28;19921;-72
2023/04/05 07:36:29;;;;;;;;;;;9.20;99.90;;;;;;5019184;28;20407;-75
2023/04/05 07:38:55;;;;;;;;;;;10.10;99.90;;;;;;5010718;28;19921;-75
2023/04/05 07:41:22;;;;;;;;;;;11.10;99.90;;;;;;5015738;28;19921;-75
2023/04/05 07:43:48;;;;;;;;;;;12.10;97.70;;;;;;5027412;28;20324;-74
2023/04/05 07:46:21;;;;;;;;;;;12.30;97.60;;;;;;5013733;28;20280;-74
2023/04/05 07:48:47;;;;;;;;;;;12.30;95.70;;;;;;5012050;28;20004;-74
2023/04/05 07:51:13;;;;;;;;;;;13.40;94.10;;;;;;4995162;28;20403;-75
2023/04/05 07:53:38;;;;;;;;;;;13.90;93.70;;;;;;5012718;28;19984;-75
2023/04/05 07:56:08;;;;;;;;;;;14.90;92.40;;;;;;5011282;28;19944;-75
2023/04/05 07:58:34;;;;;;;;;;;14.80;90.60;;;;;;5015925;28;20261;-75
2023/04/05 08:01:03;;;;;;;;;;;15.00;88.80;;;;;;5016023;28;19944;-74
2023/04/05 08:03:29;;;;;;;;;;;15.20;88.60;;;;;;5016089;28;20364;-72
2023/04/05 08:05:55;;;;;;;;;;;15.70;85.60;;;;;;5016634;28;20414;-72
2023/04/05 08:08:21;;;;;;;;;;;15.90;83.70;;;;;;5018824;28;19921;-71
2023/04/05 08:10:47;;;;;;;;;;;16.60;78.00;;;;;;5027246;28;19927;-70
2023/04/05 08:13:12;;;;;;;;;;;16.70;76.30;;;;;;5027179;28;19922;-70
2023/04/05 08:15:38;;;;;;;;;;;17.20;75.20;;;;;;4998415;28;20009;-70
2023/04/05 08:18:04;;;;;;;;;;;17.40;73.10;;;;;;4998719;28;19921;-70
2023/04/05 08:20:30;;;;;;;;;;;17.50;75.70;;;;;;5025138;28;19927;-70
2023/04/05 08:22:55;;;;;;;;;;;17.60;72.30;;;;;;5017625;28;19921;-70
2023/04/05 08:25:21;;;;;;;;;;;18.10;69.50;;;;;;5035543;28;19998;-70
2023/04/05 08:27:46;;;;;;;;;;;17.60;72.20;;;;;;5017756;28;20043;-70
2023/04/05 08:30:12;;;;;;;;;;;17.70;69.60;;;;;;5006871;28;20365;-69
2023/04/05 08:32:37;;;;;;;;;;;18.00;72.60;;;;;;5015663;28;19925;-70
2023/04/05 08:35:03;;;;;;;;;;;18.50;67.30;;;;;;5015816;28;19921;-70
2023/04/05 08:37:32;;;;;;;;;;;17.90;68.90;;;;;;5028312;28;19925;-70
2023/04/05 08:39:58;;;;;;;;;;;18.00;65.70;;;;;;5035439;28;19974;-70
2023/04/05 08:42:34;;;;;;;;;;;18.30;66.70;;;;;;5035200;28;20007;-70
2023/04/05 08:45:03;;;;;;;;;;;19.10;64.70;;;;;;5029095;28;19983;-71
2023/04/05 08:47:29;;;;;;;;;;;19.90;64.50;;;;;;5023777;28;19928;-71
2023/04/05 08:49:55;;;;;;;;;;;20.00;62.10;;;;;;5034246;28;19924;-72
2023/04/05 08:52:21;;;;;;;;;;;19.40;60.70;;;;;;5012356;28;19925;-72
2023/04/05 08:54:47;;;;;;;;;;;19.20;62.00;;;;;;5015342;28;19952;-71
2023/04/05 08:57:13;;;;;;;;;;;19.50;60.60;;;;;;5015400;28;19922;-71
2023/04/05 08:59:40;;;;;;;;;;;20.00;59.50;;;;;;5015036;28;19952;-70
2023/04/05 09:02:11;;;;;;;;;;;19.90;58.90;;;;;;5033760;28;20323;-70
2023/04/05 09:04:43;;;;;;;;;;;20.20;60.20;;;;;;5017456;28;19925;-71
2023/04/05 09:07:10;;;;;;;;;;;19.50;60.20;;;;;;4996498;28;19921;-71
2023/04/05 09:09:36;;;;;;;;;;;19.50;61.20;;;;;;5014743;28;19972;-72
2023/04/05 09:12:04;;;;;;;;;;;20.20;59.90;;;;;;5014415;28;19983;-71
2023/04/05 09:14:32;;;;;;;;;;;19.60;59.50;;;;;;5014599;28;20008;-71
2023/04/05 09:17:00;;;;;;;;;;;19.50;59.40;;;;;;5014992;28;19922;-71
2023/04/05 09:19:26;;;;;;;;;;;19.50;58.20;;;;;;5013677;28;19925;-70
2023/04/05 09:22:00;;;;;;;;;;;19.40;58.20;;;;;;5014668;28;19975;-72
2023/04/05 09:24:33;;;;;;;;;;;19.80;62.60;;;;;;5013633;28;19933;-72
2023/04/05 09:27:03;;;;;;;;;;;20.10;61.80;;;;;;5016780;28;19921;-73
2023/04/05 09:29:29;;;;;;;;;;;20.20;59.30;;;;;;4998199;28;19921;-70
2023/04/05 09:31:55;;;;;;;;;;;20.60;57.10;;;;;;4996983;28;19921;-71
2023/04/05 09:34:23;;;;;;;;;;;20.10;58.70;;;;;;5029536;28;20335;-69
2023/04/05 09:36:48;;;;;;;;;;;19.90;57.00;;;;;;5031303;28;19921;-71
2023/04/05 09:39:19;;;;;;;;;;;20.30;57.70;;;;;;5014325;28;19967;-71
2023/04/05 09:41:59;;;;;;;;;;;20.00;57.50;;;;;;5014551;28;20329;-71
2023/04/05 09:44:25;;;;;;;;;;;20.20;59.10;;;;;;5014174;28;20063;-70
2023/04/05 09:46:50;;;;;;;;;;;20.20;57.30;;;;;;5016809;28;20031;-72
2023/04/05 09:49:30;;;;;;;;;;;20.60;57.40;;;;;;5033320;28;19921;-70
2023/04/05 09:51:56;;;;;;;;;;;20.60;56.40;;;;;;5034030;28;20016;-70
2023/04/05 09:54:21;;;;;;;;;;;20.80;57.60;;;;;;5033198;28;20027;-72
2023/04/05 09:56:55;;;;;;;;;;;21.10;58.40;;;;;;5032650;28;20510;-71
2023/04/05 09:59:21;;;;;;;;;;;21.00;56.50;;;;;;5023723;28;19962;-71
2023/04/05 10:01:50;;;;;;;;;;;20.60;58.60;;;;;;5013507;28;19968;-70
2023/04/05 10:04:17;;;;;;;;;;;19.80;56.50;;;;;;4996531;28;19987;-71
2023/04/05 10:06:43;;;;;;;;;;;19.60;59.10;;;;;;5014136;28;20372;-71
2023/04/05 10:09:10;;;;;;;;;;;20.00;61.60;;;;;;5015256;28;20070;-70
2023/04/05 10:11:38;;;;;;;;;;;19.70;57.70;;;;;;4996009;28;19980;-71
2023/04/05 10:14:05;;;;;;;;;;;19.10;58.10;;;;;;5014149;28;19925;-76
2023/04/05 10:16:41;;;;;;;;;;;19.20;60.70;;;;;;5008164;28;19991;-73
2023/04/05 10:19:13;;;;;;;;;;;19.40;59.50;;;;;;5022299;28;19933;-72
2023/04/05 10:21:40;;;;;;;;;;;20.20;57.10;;;;;;5024616;28;19921;-71
2023/04/05 10:24:27;;;;;;;;;;;19.70;58.40;;;;;;5008240;28;20332;-73
2023/04/05 10:26:53;;;;;;;;;;;19.20;58.20;;;;;;5013572;28;20362;-71
2023/04/05 10:29:22;;;;;;;;;;;19.60;59.30;;;;;;5013825;28;19921;-72
2023/04/05 10:31:54;;;;;;;;;;;19.60;59.20;;;;;;5016277;28;19933;-71
2023/04/05 10:34:26;;;;;;;;;;;19.90;58.60;;;;;;4998950;28;19952;-72
2023/04/05 10:37:00;;;;;;;;;;;20.70;56.70;;;;;;4997881;28;20068;-72
2023/04/05 10:39:26;;;;;;;;;;;20.60;56.00;;;;;;5014910;28;19932;-72
2023/04/05 10:41:52;;;;;;;;;;;20.30;55.80;;;;;;4996543;28;19921;-71
2023/04/05 10:44:20;;;;;;;;;;;20.20;55.60;;;;;;5010600;28;19921;-71
2023/04/05 10:46:46;;;;;;;;;;;20.60;55.80;;;;;;5011665;28;19935;-72
2023/04/05 10:49:17;;;;;;;;;;;20.30;55.60;;;;;;4995956;28;19921;-71
2023/04/05 10:51:44;;;;;;;;;;;20.70;55.10;;;;;;5010834;28;19921;-72
2023/04/05 10:54:10;;;;;;;;;;;20.70;56.30;;;;;;4995943;28;20428;-72
2023/04/05 10:56:38;;;;;;;;;;;21.10;56.50;;;;;;5013189;28;19929;-72
2023/04/05 10:59:04;;;;;;;;;;;21.10;54.10;;;;;;4995410;28;19975;-72
2023/04/05 11:01:30;;;;;;;;;;;20.50;54.50;;;;;;5011438;28;20328;-73
2023/04/05 11:04:09;;;;;;;;;;;20.30;54.20;;;;;;5011212;28;19925;-71
2023/04/05 11:06:36;;;;;;;;;;;20.60;55.30;;;;;;5018358;28;19955;-72
2023/04/05 11:09:14;;;;;;;;;;;20.40;53.40;;;;;;5011061;28;19981;-71
2023/04/05 11:11:40;;;;;;;;;;;20.30;56.60;;;;;;4999038;28;20015;-72
2023/04/05 11:14:16;;;;;;;;;;;20.30;54.30;;;;;;5026357;28;19972;-72
2023/04/05 11:16:45;;;;;;;;;;;20.30;56.80;;;;;;5011305;28;19917;-73
2023/04/05 11:19:13;;;;;;;;;;;20.30;55.60;;;;;;5008337;28;19921;-73
2023/04/05 11:21:39;;;;;;;;;;;20.80;52.50;;;;;;5032297;28;19967;-73
2023/04/05 11:24:06;;;;;;;;;;;21.30;52.10;;;;;;5017788;28;19921;-72
2023/04/05 11:26:52;;;;;;;;;;;21.40;52.80;;;;;;5012216;28;19921;-73
2023/04/05 11:29:38;;;;;;;;;;;20.90;52.60;;;;;;5029951;28;19920;-72
2023/04/05 11:32:10;;;;;;;;;;;20.20;54.70;;;;;;5018201;28;19921;-72
2023/04/05 11:34:36;;;;;;;;;;;20.00;51.40;;;;;;5027547;28;19925;-72
2023/04/05 11:37:02;;;;;;;;;;;19.90;51.10;;;;;;5020560;28;19932;-71
2023/04/05 11:39:28;;;;;;;;;;;19.80;51.80;;;;;;5018390;28;19921;-70
2023/04/05 11:42:03;;;;;;;;;;;19.40;52.30;;;;;;5018070;28;19925;-71
2023/04/05 11:44:43;;;;;;;;;;;19.60;52.40;;;;;;5033315;28;19929;-71
2023/04/05 11:47:10;;;;;;;;;;;19.60;52.50;;;;;;5016405;28;19921;-71
2023/04/05 11:49:37;;;;;;;;;;;19.20;53.70;;;;;;5019171;28;19937;-72
2023/04/05 11:52:13;;;;;;;;;;;19.50;53.80;;;;;;5018820;28;19992;-71
2023/04/05 11:54:44;;;;;;;;;;;19.80;53.90;;;;;;5036281;28;20012;-71
2023/04/05 11:57:21;;;;;;;;;;;19.80;54.40;;;;;;5036898;28;19921;-71
2023/04/05 11:59:48;;;;;;;;;;;19.70;54.50;;;;;;5000662;28;19925;-71
2023/04/05 12:02:13;;;;;;;;;;;19.90;53.30;;;;;;5032536;28;19975;-71
2023/04/05 12:04:39;;;;;;;;;;;19.60;53.60;;;;;;5036493;28;20455;-77
2023/04/05 12:07:09;;;;;;;;;;;19.10;54.20;;;;;;5033970;28;19976;-72
2023/04/05 12:09:35;;;;;;;;;;;18.60;57.10;;;;;;5035326;28;19928;-72
2023/04/05 12:12:00;;;;;;;;;;;18.60;53.90;;;;;;5015934;28;19921;-72
2023/04/05 12:14:26;;;;;;;;;;;18.50;53.80;;;;;;4997990;28;19968;-73
2023/04/05 12:16:51;;;;;;;;;;;18.90;53.80;;;;;;4999034;28;19921;-73
2023/04/05 12:19:17;;;;;;;;;;;19.00;53.50;;;;;;5011667;28;19922;-73
2023/04/05 12:21:43;;;;;;;;;;;18.70;54.40;;;;;;4997150;28;19925;-73
2023/04/05 12:24:08;;;;;;;;;;;18.80;53.40;;;;;;4997802;28;19921;-73
2023/04/05 12:26:34;;;;;;;;;;;18.80;51.40;;;;;;4998420;28;20377;-73
2023/04/05 12:29:02;;;;;;;;;;;18.80;52.20;;;;;;5017139;28;20369;-73
2023/04/05 12:31:37;;;;;;;;;;;18.80;53.20;;;;;;5017449;28;19932;-72
2023/04/05 12:34:02;;;;;;;;;;;18.70;53.70;;;;;;5023322;28;20336;-72
2023/04/05 12:36:30;;;;;;;;;;;18.60;54.90;;;;;;5014903;28;19922;-72
2023/04/05 12:38:59;;;;;;;;;;;18.30;56.30;;;;;;5015375;28;20404;-73
2023/04/05 12:41:28;;;;;;;;;;;18.80;55.90;;;;;;5015272;28;20012;-73
2023/04/05 12:43:59;;;;;;;;;;;19.10;56.60;;;;;;5016119;28;19925;-74
2023/04/05 12:46:38;;;;;;;;;;;19.30;53.30;;;;;;5015467;28;19929;-73
2023/04/05 12:49:03;;;;;;;;;;;19.20;54.00;;;;;;5015763;28;19928;-73
2023/04/05 12:51:30;;;;;;;;;;;19.40;51.80;;;;;;4996704;28;19921;-72
2023/04/05 12:53:55;;;;;;;;;;;18.80;54.80;;;;;;5034564;28;19932;-73
2023/04/05 12:56:21;;;;;;;;;;;18.60;52.30;;;;;;5017453;28;20011;-73
2023/04/05 12:58:49;;;;;;;;;;;17.90;56.20;;;;;;5034361;28;19925;-73
2023/04/05 13:01:14;;;;;;;;;;;17.70;54.00;;;;;;5034947;28;20419;-73
2023/04/05 13:03:42;;;;;;;;;;;17.70;51.90;;;;;;5015043;28;19917;-73
2023/04/05 13:06:11;;;;;;;;;;;17.00;53.00;;;;;;5034168;28;19921;-73
2023/04/05 13:08:36;;;;;;;;;;;16.60;54.40;;;;;;5016975;28;20280;-73
2023/04/05 13:11:02;;;;;;;;;;;16.40;57.30;;;;;;5029557;28;20376;-72
2023/04/05 13:13:28;;;;;;;;;;;16.30;55.10;;;;;;5017057;28;20368;-72
2023/04/05 13:15:56;;;;;;;;;;;16.30;55.60;;;;;;5034933;28;20311;-73
2023/04/05 13:18:21;;;;;;;;;;;16.10;54.60;;;;;;5015897;28;19925;-72
2023/04/05 13:20:47;;;;;;;;;;;16.20;54.30;;;;;;5013083;28;19929;-73
2023/04/05 13:23:12;;;;;;;;;;;15.60;54.20;;;;;;5014973;28;20360;-73
2023/04/05 13:25:38;;;;;;;;;;;15.60;58.60;;;;;;5013615;28;19944;-73
2023/04/05 13:28:04;;;;;;;;;;;15.60;55.70;;;;;;5017278;28;20276;-73
2023/04/05 13:30:30;;;;;;;;;;;15.80;54.10;;;;;;5006742;28;20003;-72
2023/04/05 13:32:56;;;;;;;;;;;15.50;56.40;;;;;;5016371;28;20392;-73
2023/04/05 13:35:21;;;;;;;;;;;15.60;55.90;;;;;;5034041;28;19917;-73
2023/04/05 13:37:48;;;;;;;;;;;15.40;56.40;;;;;;4996063;28;19961;-72
2023/04/05 13:40:15;;;;;;;;;;;15.30;56.30;;;;;;4997782;28;19926;-73
2023/04/05 13:42:41;;;;;;;;;;;15.10;56.60;;;;;;4995888;28;19917;-76
2023/04/05 13:45:06;;;;;;;;;;;14.50;57.20;;;;;;4992558;28;20282;-71
2023/04/05 13:47:32;;;;;;;;;;;14.50;59.20;;;;;;4994179;28;19921;-73
2023/04/05 13:50:01;;;;;;;;;;;14.80;58.10;;;;;;4986519;28;20012;-73
2023/04/05 13:52:27;;;;;;;;;;;14.80;58.60;;;;;;4991632;28;20333;-72
2023/04/05 13:54:52;;;;;;;;;;;14.80;58.10;;;;;;4991572;28;19921;-72
2023/04/05 13:57:18;;;;;;;;;;;14.90;57.90;;;;;;4996011;28;19969;-74
2023/04/05 13:59:44;;;;;;;;;;;14.90;59.30;;;;;;4994649;28;19922;-75
2023/04/05 14:02:10;;;;;;;;;;;14.90;58.70;;;;;;4992585;28;19928;-72
2023/04/05 14:04:37;;;;;;;;;;;14.90;60.80;;;;;;4993385;28;20489;-77
2023/04/05 14:07:06;;;;;;;;;;;15.10;59.70;;;;;;4976064;28;19926;-74
2023/04/05 14:09:32;;;;;;;;;;;15.20;58.10;;;;;;4991142;28;20364;-72
2023/04/05 14:12:00;;;;;;;;;;;15.00;57.50;;;;;;4993133;28;19922;-76
2023/04/05 14:14:25;;;;;;;;;;;14.70;58.90;;;;;;4991577;28;19969;-73
2023/04/05 14:16:51;;;;;;;;;;;14.30;59.40;;;;;;4993568;28;20349;-76
2023/04/05 14:19:17;;;;;;;;;;;14.00;61.60;;;;;;4986133;28;20281;-73
2023/04/05 14:21:42;;;;;;;;;;;14.20;63.30;;;;;;4989277;28;19922;-72
2023/04/05 14:24:08;;;;;;;;;;;14.20;63.20;;;;;;4990191;28;19931;-71